createdAt,value
2019-01-03T00:02:36.921Z,7.20
2019-01-03T00:05:29.285Z,5.03
2019-01-03T00:08:26.588Z,7.87
2019-01-03T00:11:11.199Z,8.80
2019-01-03T00:13:59.175Z,5.60
2019-01-03T00:16:55.131Z,7.10
2019-01-03T00:19:45.765Z,10.33
2019-01-03T00:22:44.194Z,7.70
2019-01-03T00:25:32.820Z,6.03
2019-01-03T00:28:26.499Z,6.20
2019-01-03T00:31:15.123Z,9.83
2019-01-03T00:34:04.769Z,8.57
2019-01-03T00:37:03.434Z,8.57
2019-01-03T00:39:53.087Z,5.83
2019-01-03T00:42:42.728Z,8.63
2019-01-03T00:45:30.360Z,4.83
2019-01-03T00:48:29.191Z,9.03
2019-01-03T00:51:36.871Z,5.67
2019-01-03T00:54:25.494Z,8.17
2019-01-03T00:57:22.513Z,14.03
2019-01-03T01:00:18.963Z,9.73
2019-01-03T01:03:07.752Z,5.40
2019-01-03T01:06:09.917Z,15.27
2019-01-03T01:08:58.854Z,8.47
2019-01-03T01:11:47.344Z,7.37
2019-01-03T01:14:33.533Z,13.43
2019-01-03T01:17:38.107Z,8.33
2019-01-03T01:20:26.322Z,12.73
2019-01-03T01:23:14.532Z,13.80
2019-01-03T01:26:02.942Z,7.53
2019-01-03T01:28:51.363Z,5.10
2019-01-03T01:31:39.371Z,7.30
2019-01-03T01:34:27.578Z,11.70
2019-01-03T01:37:16.202Z,9.60
2019-01-03T01:40:04.070Z,9.47
2019-01-03T01:42:53.665Z,9.63
2019-01-03T01:45:55.380Z,5.47
2019-01-03T01:48:53.761Z,7.10
2019-01-03T01:51:42.251Z,16.83
2019-01-03T01:54:25.549Z,8.37
2019-01-03T01:57:16.798Z,4.50
2019-01-03T02:00:06.357Z,8.57
2019-01-03T02:02:54.434Z,9.27
2019-01-03T02:05:57.371Z,23.10
2019-01-03T02:08:59.109Z,10.23
2019-01-03T02:11:58.181Z,11.03
2019-01-03T02:14:50.464Z,10.67
2019-01-03T02:17:39.016Z,25.53
2019-01-03T02:20:34.275Z,11.83
2019-01-03T02:23:34.227Z,8.23
2019-01-03T02:26:24.773Z,10.63
2019-01-03T02:29:32.878Z,8.13
2019-01-03T02:32:28.957Z,7.97
2019-01-03T02:35:33.691Z,5.03
2019-01-03T02:38:29.436Z,4.83
2019-01-03T02:41:22.063Z,7.13
2019-01-03T02:44:17.580Z,11.23
2019-01-03T02:47:05.725Z,11.70
2019-01-03T02:49:49.370Z,6.07
2019-01-03T02:52:54.520Z,3.83
2019-01-03T02:55:50.244Z,8.60
2019-01-03T02:58:40.224Z,9.87
2019-01-03T03:01:29.234Z,7.97
2019-01-03T03:04:18.762Z,5.57
2019-01-03T03:07:07.137Z,7.30
2019-01-03T03:09:48.845Z,7.20
2019-01-03T03:12:38.490Z,5.07
2019-01-03T03:15:34.334Z,6.70
2019-01-03T03:18:19.672Z,10.93
2019-01-03T03:21:10.704Z,9.00
2019-01-03T03:23:58.849Z,4.43
2019-01-03T03:26:51.499Z,6.73
2019-01-03T03:29:41.079Z,8.60
2019-01-03T03:32:29.430Z,5.80
2019-01-03T03:35:19.008Z,6.47
2019-01-03T03:38:23.944Z,9.80
2019-01-03T03:41:28.474Z,11.03
2019-01-03T03:44:18.261Z,5.70
2019-01-03T03:47:13.997Z,3.10
2019-01-03T03:50:06.267Z,6.27
2019-01-03T03:52:58.672Z,4.13
2019-01-03T03:55:45.197Z,6.40
2019-01-03T03:58:40.491Z,4.93
2019-01-03T04:01:28.229Z,2.50
2019-01-03T04:04:25.307Z,4.00
2019-01-03T04:07:17.829Z,3.10
2019-01-03T04:10:22.114Z,5.53
2019-01-03T04:13:11.524Z,4.30
2019-01-03T04:16:08.269Z,8.60
2019-01-03T04:19:00.509Z,2.80
2019-01-03T04:22:00.734Z,2.37
2019-01-03T04:24:52.905Z,4.93
2019-01-03T04:27:42.381Z,6.10
2019-01-03T04:30:30.308Z,4.40
2019-01-03T04:33:19.896Z,4.70
2019-01-03T04:36:10.802Z,7.60
2019-01-03T04:38:59.630Z,5.03
2019-01-03T04:42:08.323Z,4.67
2019-01-03T04:45:01.368Z,6.20
2019-01-03T04:47:56.917Z,2.20
2019-01-03T04:50:49.609Z,6.80
2019-01-03T04:53:44.965Z,4.30
2019-01-03T04:56:41.140Z,7.43
2019-01-03T04:59:30.532Z,6.30
2019-01-03T05:02:20.143Z,6.77
2019-01-03T05:05:15.490Z,4.67
2019-01-03T05:08:04.138Z,10.63
2019-01-03T05:10:47.820Z,7.40
2019-01-03T05:13:39.949Z,9.83
2019-01-03T05:16:47.603Z,4.97
2019-01-03T05:19:43.250Z,1.77
2019-01-03T05:22:38.152Z,3.03
2019-01-03T05:25:33.941Z,4.53
2019-01-03T05:28:26.852Z,3.43
2019-01-03T05:31:19.760Z,2.00
2019-01-03T05:34:17.559Z,3.07
2019-01-03T05:37:13.734Z,2.57
2019-01-03T05:40:10.938Z,2.60
2019-01-03T05:43:00.383Z,5.00
2019-01-03T05:46:08.265Z,2.87
2019-01-03T05:49:00.784Z,6.03
2019-01-03T05:52:00.471Z,8.43
2019-01-03T05:54:53.385Z,3.43
2019-01-03T05:57:41.600Z,6.70
2019-01-03T06:00:30.204Z,4.90
2019-01-03T06:03:19.377Z,4.00
2019-01-03T06:06:07.490Z,8.90
2019-01-03T06:09:02.864Z,6.40
2019-01-03T06:11:55.562Z,3.90
2019-01-03T06:14:43.767Z,4.27
2019-01-03T06:17:35.897Z,2.80
2019-01-03T06:20:23.842Z,4.20
2019-01-03T06:23:16.397Z,4.83
2019-01-03T06:26:04.822Z,7.60
2019-01-03T06:28:53.055Z,8.97
2019-01-03T06:31:57.224Z,9.83
2019-01-03T06:34:46.427Z,7.30
2019-01-03T06:37:34.005Z,7.00
2019-01-03T06:40:23.912Z,6.03
2019-01-03T06:43:21.782Z,5.50
2019-01-03T06:46:10.057Z,5.77
2019-01-03T06:48:52.754Z,2.40
2019-01-03T06:51:41.266Z,4.63
2019-01-03T06:54:29.054Z,5.30
2019-01-03T06:57:18.918Z,4.40
2019-01-03T07:00:26.600Z,4.97
2019-01-03T07:03:28.558Z,3.33
2019-01-03T07:06:17.150Z,3.17
2019-01-03T07:09:09.298Z,3.83
2019-01-03T07:12:07.097Z,5.33
2019-01-03T07:14:55.910Z,3.67
2019-01-03T07:17:50.839Z,4.10
2019-01-03T07:20:48.721Z,6.80
2019-01-03T07:23:50.038Z,6.87
2019-01-03T07:26:38.434Z,4.63
2019-01-03T07:29:27.524Z,7.63
2019-01-03T07:32:14.190Z,6.73
2019-01-03T07:35:02.704Z,12.20
2019-01-03T07:38:07.518Z,5.27
2019-01-03T07:40:55.577Z,5.33
2019-01-03T07:43:50.172Z,3.97
2019-01-03T07:46:38.118Z,4.40
2019-01-03T07:49:29.657Z,4.37
2019-01-03T07:52:17.033Z,4.60
2019-01-03T07:55:06.658Z,5.33
2019-01-03T07:57:57.437Z,5.30
2019-01-03T08:00:49.991Z,5.47
2019-01-03T08:03:43.047Z,8.50
2019-01-03T08:06:38.794Z,3.20
2019-01-03T08:09:28.972Z,4.90
2019-01-03T08:12:19.560Z,5.07
2019-01-03T08:15:08.937Z,2.80
2019-01-03T08:18:04.516Z,3.93
2019-01-03T08:20:52.590Z,7.60
2019-01-03T08:23:51.998Z,6.63
2019-01-03T08:26:43.012Z,6.20
2019-01-03T08:29:43.643Z,3.87
2019-01-03T08:32:37.698Z,4.83
2019-01-03T08:35:45.533Z,8.00
2019-01-03T08:38:41.046Z,9.87
2019-01-03T08:41:29.072Z,4.13
2019-01-03T08:44:27.371Z,6.33
2019-01-03T08:47:15.918Z,7.00
2019-01-03T08:50:22.904Z,4.23
2019-01-03T08:53:27.635Z,4.43
2019-01-03T08:56:15.573Z,7.13
2019-01-03T08:59:05.358Z,7.33
2019-01-03T09:02:08.676Z,6.57
2019-01-03T09:04:57.616Z,10.53
2019-01-03T09:07:46.783Z,4.87
2019-01-03T09:10:36.186Z,4.83
2019-01-03T09:13:29.422Z,10.40
2019-01-03T09:16:18.584Z,3.03
2019-01-03T09:19:14.100Z,6.60
2019-01-03T09:22:09.823Z,6.07
2019-01-03T09:25:14.871Z,5.30
2019-01-03T09:28:16.039Z,9.57
2019-01-03T09:31:21.767Z,4.47
2019-01-03T09:34:15.239Z,9.57
2019-01-03T09:37:14.150Z,3.23
2019-01-03T09:40:22.852Z,6.90
2019-01-03T09:43:13.884Z,9.83
2019-01-03T09:45:45.815Z,5.20
2019-01-03T09:48:18.899Z,8.20
2019-01-03T09:50:51.398Z,7.73
2019-01-03T09:53:21.650Z,15.63
2019-01-03T09:55:58.730Z,7.40
2019-01-03T09:58:30.786Z,4.37
2019-01-03T10:01:02.324Z,6.67
2019-01-03T10:03:40.130Z,7.83
2019-01-03T10:06:12.666Z,6.40
2019-01-03T10:08:47.373Z,5.87
2019-01-03T10:11:18.975Z,7.97
2019-01-03T10:13:51.044Z,6.73
2019-01-03T10:16:24.486Z,10.00
2019-01-03T10:18:55.521Z,7.63
2019-01-03T10:21:26.726Z,4.17
2019-01-03T10:24:02.491Z,8.00
2019-01-03T10:26:34.233Z,3.57
2019-01-03T10:29:05.829Z,7.20
2019-01-03T10:31:38.341Z,8.80
2019-01-03T10:34:15.035Z,5.27
2019-01-03T10:36:49.878Z,4.23
2019-01-03T10:39:23.670Z,7.07
2019-01-03T10:41:54.800Z,8.03
2019-01-03T10:44:25.125Z,10.73
2019-01-03T10:46:55.693Z,4.70
2019-01-03T10:49:28.346Z,5.43
2019-01-03T10:51:58.920Z,5.60
2019-01-03T10:54:29.862Z,4.10
2019-01-03T10:57:02.708Z,3.83
2019-01-03T10:59:33.222Z,5.90
2019-01-03T11:02:14.977Z,10.10
2019-01-03T11:04:46.186Z,2.87
2019-01-03T11:07:19.918Z,2.77
2019-01-03T11:09:50.630Z,8.10
2019-01-03T11:12:25.253Z,3.63
2019-01-03T11:14:55.676Z,6.50
2019-01-03T11:17:26.679Z,6.40
2019-01-03T11:19:59.019Z,4.40
2019-01-03T11:22:30.630Z,5.63
2019-01-03T11:25:01.143Z,6.10
2019-01-03T11:27:38.265Z,5.27
2019-01-03T11:30:10.261Z,2.93
2019-01-03T11:32:54.497Z,4.77
2019-01-03T11:35:26.828Z,3.20
2019-01-03T11:37:59.874Z,3.93
2019-01-03T11:40:30.397Z,3.87
2019-01-03T11:43:03.452Z,7.60
2019-01-03T11:45:35.381Z,12.37
2019-01-03T11:48:06.233Z,11.07
2019-01-03T11:50:37.231Z,2.10
2019-01-03T11:53:07.977Z,2.00
2019-01-03T11:55:38.838Z,5.40
2019-01-03T11:58:12.054Z,2.30
2019-01-03T12:00:43.950Z,6.07
2019-01-03T12:03:14.526Z,4.10
2019-01-03T12:05:44.807Z,6.37
2019-01-03T12:08:15.552Z,7.03
2019-01-03T12:10:45.989Z,4.37
2019-01-03T12:13:16.434Z,5.60
2019-01-03T12:15:48.807Z,7.33
2019-01-03T12:18:21.415Z,8.73
2019-01-03T12:20:52.597Z,9.60
2019-01-03T12:23:24.572Z,9.07
2019-01-03T12:26:02.183Z,4.70
2019-01-03T12:28:34.474Z,3.47
2019-01-03T12:31:11.207Z,6.93
2019-01-03T12:33:41.453Z,2.50
2019-01-03T12:39:07.435Z,4.07
2019-01-03T12:41:40.806Z,4.97
2019-01-03T12:44:13.738Z,5.60
2019-01-03T12:46:44.289Z,2.90
2019-01-03T12:49:17.716Z,2.30
2019-01-03T12:51:48.629Z,5.20
2019-01-03T12:54:22.603Z,8.97
2019-01-03T12:56:54.798Z,4.13
2019-01-03T12:59:25.639Z,2.73
2019-01-03T13:01:57.199Z,3.07
2019-01-03T13:04:27.909Z,5.00
2019-01-03T13:07:02.051Z,4.40
2019-01-03T13:09:32.459Z,3.83
2019-01-03T13:12:05.147Z,5.80
2019-01-03T13:14:37.238Z,10.53
2019-01-03T13:17:07.762Z,6.53
2019-01-03T13:19:38.354Z,4.60
2019-01-03T13:22:10.666Z,3.70
2019-01-03T13:24:43.450Z,3.60
2019-01-03T13:27:18.336Z,4.77
2019-01-03T13:29:50.326Z,6.73
2019-01-03T13:32:22.327Z,2.87
2019-01-03T13:34:53.613Z,11.67
2019-01-03T13:37:24.081Z,3.10
2019-01-03T13:40:01.198Z,3.83
2019-01-03T13:42:32.586Z,6.40
2019-01-03T13:45:08.137Z,4.20
2019-01-03T13:47:40.877Z,5.40
2019-01-03T13:50:15.576Z,6.33
2019-01-03T13:52:45.817Z,4.50
2019-01-03T13:55:18.227Z,4.80
2019-01-03T13:57:48.477Z,2.77
2019-01-03T14:00:18.859Z,7.10
2019-01-03T14:02:49.093Z,2.90
2019-01-03T14:05:23.038Z,8.07
2019-01-03T14:07:57.231Z,6.17
2019-01-03T14:10:28.135Z,6.43
2019-01-03T14:13:01.738Z,9.00
2019-01-03T14:15:35.271Z,7.50
2019-01-03T14:18:07.648Z,5.20
2019-01-03T14:20:38.643Z,2.90
2019-01-03T14:23:08.951Z,2.90
2019-01-03T14:25:46.802Z,4.10
2019-01-03T14:28:18.465Z,2.67
2019-01-03T14:30:53.263Z,6.33
2019-01-03T14:33:24.264Z,1.80
2019-01-03T14:35:54.696Z,4.23
2019-01-03T14:38:28.063Z,5.90
2019-01-03T14:41:07.314Z,3.53
2019-01-03T14:43:40.298Z,9.07
2019-01-03T14:46:31.834Z,3.00
2019-01-03T14:49:03.935Z,7.07
2019-01-03T14:51:36.431Z,4.67
2019-01-03T14:54:09.041Z,3.60
2019-01-03T14:56:42.347Z,2.23
2019-01-03T14:59:12.976Z,4.70
2019-01-03T15:01:43.920Z,8.30
2019-01-03T15:04:14.257Z,3.87
2019-01-03T15:06:44.449Z,3.73
2019-01-03T15:09:17.603Z,2.73
2019-01-03T15:11:48.242Z,1.90
2019-01-03T15:14:18.809Z,5.20
2019-01-03T15:16:50.673Z,2.20
2019-01-03T15:19:21.102Z,3.73
2019-01-03T15:21:55.135Z,3.10
2019-01-03T15:24:27.240Z,2.87
2019-01-03T15:27:04.478Z,2.00
2019-01-03T15:29:35.374Z,9.10
2019-01-03T15:32:09.793Z,5.60
2019-01-03T15:34:41.230Z,4.07
2019-01-03T15:37:11.434Z,10.30
2019-01-03T15:39:41.750Z,3.67
2019-01-03T15:42:12.405Z,3.10
2019-01-03T15:44:43.810Z,10.00
2019-01-03T15:47:17.810Z,4.63
2019-01-03T15:49:52.395Z,6.93
2019-01-03T15:52:24.207Z,5.10
2019-01-03T15:54:54.559Z,7.63
2019-01-03T15:57:40.222Z,8.20
2019-01-03T16:00:13.277Z,6.13
2019-01-03T16:02:45.940Z,6.77
2019-01-03T16:05:17.594Z,3.93
2019-01-03T16:07:48.593Z,3.53
2019-01-03T16:10:22.450Z,6.30
2019-01-03T16:12:54.091Z,2.97
2019-01-03T16:15:24.385Z,2.60
2019-01-03T16:17:57.727Z,9.30
2019-01-03T16:20:29.876Z,4.90
2019-01-03T16:23:00.302Z,8.20
2019-01-03T16:25:30.473Z,4.27
2019-01-03T16:28:02.854Z,4.90
2019-01-03T16:30:33.339Z,13.00
2019-01-03T16:33:06.144Z,8.47
2019-01-03T16:35:47.995Z,8.53
2019-01-03T16:38:18.445Z,6.27
2019-01-03T16:40:56.793Z,9.93
2019-01-03T16:43:27.708Z,6.83
2019-01-03T16:46:00.929Z,3.10
2019-01-03T16:48:31.476Z,3.50
2019-01-03T16:51:05.568Z,7.53
2019-01-03T16:53:38.798Z,7.23
2019-01-03T16:56:10.615Z,7.23
2019-01-03T16:58:46.316Z,4.90
2019-01-03T17:01:19.349Z,5.90
2019-01-03T17:03:49.701Z,7.20
2019-01-03T17:06:32.746Z,4.73
2019-01-03T17:09:03.485Z,4.13
2019-01-03T17:11:34.072Z,5.60
2019-01-03T17:14:07.690Z,8.17
2019-01-03T17:17:00.760Z,7.27
2019-01-03T17:19:31.426Z,6.80
2019-01-03T17:22:05.069Z,9.03
2019-01-03T17:24:38.361Z,7.37
2019-01-03T17:27:10.225Z,7.07
2019-01-03T17:29:43.264Z,6.70
2019-01-03T17:32:16.301Z,5.13
2019-01-03T17:34:47.462Z,4.87
2019-01-03T17:37:18.118Z,7.67
2019-01-03T17:39:48.684Z,4.90
2019-01-03T17:42:19.094Z,8.43
2019-01-03T17:44:50.363Z,5.00
2019-01-03T17:47:23.477Z,7.07
2019-01-03T17:49:54.025Z,8.30
2019-01-03T17:52:27.007Z,6.53
2019-01-03T17:54:57.526Z,5.20
2019-01-03T17:57:28.122Z,3.50
2019-01-03T17:59:58.929Z,12.10
2019-01-03T18:02:34.030Z,5.67
2019-01-03T18:05:08.884Z,7.53
2019-01-03T18:07:39.952Z,6.50
2019-01-03T18:10:12.267Z,5.87
2019-01-03T18:12:45.971Z,6.07
2019-01-03T18:15:17.618Z,7.53
2019-01-03T18:17:50.290Z,5.93
2019-01-03T18:20:22.057Z,4.60
2019-01-03T18:22:54.979Z,7.77
2019-01-03T18:25:29.030Z,6.67
2019-01-03T18:28:00.506Z,4.47
2019-01-03T18:30:36.515Z,8.70
2019-01-03T18:33:09.278Z,7.60
2019-01-03T18:35:42.590Z,10.03
2019-01-03T18:38:16.060Z,9.30
2019-01-03T18:40:49.337Z,8.20
2019-01-03T18:43:19.520Z,6.97
2019-01-03T18:45:52.225Z,6.53
2019-01-03T18:48:24.474Z,7.00
2019-01-03T18:50:54.809Z,6.17
2019-01-03T18:53:25.491Z,10.40
2019-01-03T18:55:59.018Z,7.50
2019-01-03T18:58:34.246Z,7.37
2019-01-03T19:01:07.758Z,8.97
2019-01-03T19:03:39.569Z,8.60
2019-01-03T19:06:11.553Z,7.67
2019-01-03T19:08:44.013Z,8.30
2019-01-03T19:11:16.199Z,6.70
2019-01-03T19:13:48.681Z,9.67
2019-01-03T19:16:26.474Z,10.63
2019-01-03T19:18:56.725Z,9.37
2019-01-03T19:21:27.349Z,9.03
2019-01-03T19:24:01.252Z,8.77
2019-01-03T19:26:34.081Z,12.60
2019-01-03T19:29:04.782Z,12.60
2019-01-03T19:31:39.586Z,15.37
2019-01-03T19:34:09.870Z,25.50
2019-01-03T19:36:40.458Z,9.70
2019-01-03T19:39:14.378Z,12.30
2019-01-03T19:41:48.009Z,8.00
2019-01-03T19:44:27.430Z,14.10
2019-01-03T19:46:59.670Z,9.40
2019-01-03T19:49:30.074Z,11.23
2019-01-03T19:52:05.558Z,12.07
2019-01-03T19:54:36.046Z,13.93
2019-01-03T19:57:06.447Z,12.93
2019-01-03T19:59:37.882Z,19.57
2019-01-03T20:02:15.720Z,10.93
2019-01-03T20:04:50.119Z,9.13
2019-01-03T20:07:26.431Z,13.43
2019-01-03T20:09:59.916Z,10.27
2019-01-03T20:12:32.300Z,11.67
2019-01-03T20:15:03.406Z,11.00
2019-01-03T20:17:33.845Z,14.70
2019-01-03T20:20:06.414Z,11.83
2019-01-03T20:22:43.905Z,10.57
2019-01-03T20:25:14.602Z,12.30
2019-01-03T20:27:46.259Z,13.40
2019-01-03T20:30:17.018Z,13.87
2019-01-03T20:32:49.840Z,60.50
2019-01-03T20:35:22.679Z,79.60
2019-01-03T20:37:54.832Z,108.83
2019-01-03T20:40:25.462Z,112.27
2019-01-03T20:42:59.651Z,120.83
2019-01-03T20:45:30.639Z,101.90
2019-01-03T20:48:01.493Z,101.47
2019-01-03T20:50:35.041Z,90.90
2019-01-03T20:53:05.508Z,74.97
2019-01-03T20:55:35.911Z,57.57
2019-01-03T20:58:06.401Z,51.30
2019-01-03T21:00:37.347Z,42.53
2019-01-03T21:03:08.062Z,27.13
2019-01-03T21:05:43.006Z,24.40
2019-01-03T21:08:13.702Z,23.70
2019-01-03T21:10:45.318Z,19.80
2019-01-03T21:13:15.831Z,15.23
2019-01-03T21:15:46.608Z,21.63
2019-01-03T21:18:17.304Z,13.67
2019-01-03T21:20:47.717Z,15.17
2019-01-03T21:23:18.336Z,15.43
2019-01-03T21:25:50.316Z,10.10
2019-01-03T21:28:20.964Z,12.70
2019-01-03T21:30:52.227Z,9.30
2019-01-03T21:33:23.844Z,17.00
2019-01-03T21:35:58.765Z,8.87
2019-01-03T21:38:30.522Z,10.20
2019-01-03T21:41:00.860Z,13.17
2019-01-03T21:43:34.806Z,11.17
2019-01-03T21:46:05.042Z,14.87
2019-01-03T21:48:38.886Z,10.20
2019-01-03T21:51:09.223Z,13.90
2019-01-03T21:53:42.753Z,12.17
2019-01-03T21:56:13.119Z,9.80
2019-01-03T21:58:43.658Z,10.67
2019-01-03T22:01:14.622Z,11.20
2019-01-03T22:03:45.644Z,8.83
2019-01-03T22:06:15.986Z,8.90
2019-01-03T22:08:48.617Z,10.40
2019-01-03T22:11:22.326Z,8.77
2019-01-03T22:13:55.121Z,11.03
2019-01-03T22:16:31.769Z,10.80
2019-01-03T22:19:02.485Z,15.60
2019-01-03T22:21:32.781Z,12.00
2019-01-03T22:24:04.636Z,11.70
2019-01-03T22:26:38.280Z,8.60
2019-01-03T22:29:09.957Z,9.93
2019-01-03T22:31:40.354Z,10.53
2019-01-03T22:34:11.514Z,13.10
2019-01-03T22:36:43.671Z,10.10
2019-01-03T22:39:14.053Z,7.73
2019-01-03T22:41:46.843Z,9.30
2019-01-03T22:44:19.603Z,8.33
2019-01-03T22:46:50.096Z,12.10
2019-01-03T22:49:20.437Z,13.00
2019-01-03T22:51:52.771Z,9.70
2019-01-03T22:54:25.822Z,8.63
2019-01-03T22:56:57.250Z,14.27
2019-01-03T22:59:27.930Z,10.63
2019-01-03T23:01:59.386Z,8.90
2019-01-03T23:04:29.894Z,12.27
2019-01-03T23:07:01.686Z,10.50
2019-01-03T23:09:38.122Z,9.53
2019-01-03T23:12:08.499Z,10.17
2019-01-03T23:14:38.888Z,11.77
2019-01-03T23:17:09.651Z,10.50
2019-01-03T23:19:40.377Z,13.63
2019-01-03T23:22:10.750Z,11.37
2019-01-03T23:24:41.879Z,8.50
2019-01-03T23:27:18.342Z,9.53
2019-01-03T23:29:49.892Z,7.00
2019-01-03T23:32:20.615Z,10.57
2019-01-03T23:34:51.237Z,13.00
2019-01-03T23:37:23.851Z,13.23
2019-01-03T23:39:53.937Z,13.17
2019-01-03T23:42:25.641Z,10.77
2019-01-03T23:45:18.984Z,12.50
2019-01-03T23:47:52.939Z,12.47
2019-01-03T23:50:28.681Z,11.53
2019-01-03T23:52:59.290Z,15.10
2019-01-03T23:55:33.039Z,19.13
2019-01-03T23:58:03.509Z,12.63
